Погода Зажелязнана неделю

Мазовецкое воеводство, Польша

18 - 24 июля
  • 18июля
    Сегодня
    +14°
    +27°
    Практически безоблачно
    ВремяПогодаТемператураВлажностьДавлениеВетер, м/сВероятность осадков
    02:00Облачно с прояснениями+18°C67 %751 мм1.2 м/с22 %
    05:00Ясно и безоблачно+17°C75 %751 мм1.2 м/с19 %
    08:00Ясно и безоблачно+21°C70 %752 мм2.0 м/с3 %
    11:00Практически безоблачно+24°C51 %752 мм3.1 м/с3 %
    14:00Практически безоблачно+25°C44 %752 мм3.4 м/с1 %
    17:00Практически безоблачно+26°C44 %752 мм3.4 м/с2 %
    20:00Ясно и безоблачно+23°C54 %752 мм2.0 м/с2 %
    23:00Практически безоблачно+18°C65 %752 мм1.3 м/с2 %
  • 19июля
    Пятница
    +13°
    +26°
    Ясно и безоблачно
    ВремяПогодаТемператураВлажностьДавлениеВетер, м/сВероятность осадков
    02:00Ясно и безоблачно+16°C76 %752 мм1.0 м/с2 %
    05:00Облачно с прояснениями+14°C86 %752 мм1.0 м/с2 %
    08:00Облачно с прояснениями+19°C73 %753 мм1.3 м/с2 %
    11:00Ясно и безоблачно+23°C49 %752 мм2.6 м/с2 %
    14:00Ясно и безоблачно+25°C43 %752 мм2.8 м/с2 %
    17:00Ясно и безоблачно+26°C45 %750 мм3.1 м/с2 %
    20:00Ясно и безоблачно+22°C54 %749 мм1.5 м/с2 %
    23:00Ясно и безоблачно+17°C63 %750 мм1.0 м/с2 %
  • 20июля
    Суббота
    +14°
    +27°
    Ясно и безоблачно
    ВремяПогодаТемператураВлажностьДавлениеВетер, м/сВероятность осадков
    02:00Ясно и безоблачно+15°C78 %749 мм0.7 м/с2 %
    05:00Практически безоблачно+13°C82 %748 мм0.5 м/с2 %
    08:00Облачно с прояснениями+20°C63 %748 мм0.6 м/с2 %
    11:00Небольшая облачность+24°C48 %748 мм1.9 м/с2 %
    14:00Ясно и безоблачно+26°C43 %747 мм2.1 м/с2 %
    17:00Ясно и безоблачно+27°C41 %746 мм2.3 м/с2 %
    20:00Ясно и безоблачно+23°C57 %745 мм1.1 м/с2 %
    23:00Ясно и безоблачно+19°C71 %745 мм0.9 м/с2 %
  • 21июля
    Воскресенье
    +15°
    +30°
    Облачно с прояснениями
    ВремяПогодаТемператураВлажностьДавлениеВетер, м/сВероятность осадков
    02:00Ясно и безоблачно+16°C76 %745 мм0.9 м/с2 %
    05:00Ясно и безоблачно+14°C74 %744 мм0.8 м/с2 %
    08:00Ясно и безоблачно+21°C58 %744 мм1.1 м/с2 %
    11:00Практически безоблачно+26°C41 %744 мм1.8 м/с2 %
    14:00Облачно с прояснениями+28°C33 %743 мм1.8 м/с2 %
    17:00Облачно с прояснениями+29°C33 %742 мм1.6 м/с2 %
    20:00Облачно с прояснениями+25°C44 %742 мм1.1 м/с2 %
    23:00Ясно и безоблачно+21°C60 %743 мм0.9 м/с2 %
  • 22июля
    Понедельник
    +17°
    +30°
    Облачно с прояснениями
    ВремяПогодаТемператураВлажностьДавлениеВетер, м/сВероятность осадков
    02:00Ясно и безоблачно+18°C74 %743 мм0.9 м/с2 %
    05:00Ясно и безоблачно+16°C80 %742 мм1.0 м/с2 %
    08:00Ясно и безоблачно+23°C55 %743 мм1.9 м/с4 %
    11:00Практически безоблачно+28°C35 %743 мм2.6 м/с5 %
    14:00Облачно с прояснениями+29°C32 %743 мм2.9 м/с15 %
    17:00Практически безоблачно+28°C33 %742 мм2.6 м/с22 %
    20:00Небольшая облачность+24°C50 %742 мм1.5 м/с25 %
    23:00Пасмурно, сплошная облачность+19°C64 %744 мм1.4 м/с22 %
Мы используем cookies
Соглашаюсь